sensor_id;sensor_type;location;lat;lon;timestamp;P1;durP1;ratioP1;P2;durP2;ratioP2
16579;SDS011;8402;51.466;6.806;2023-05-07T00:01:01;8.18;;;4.72;;
16579;SDS011;8402;51.466;6.806;2023-05-07T00:03:33;8.73;;;5.15;;
16579;SDS011;8402;51.466;6.806;2023-05-07T00:06:03;11.80;;;5.72;;
16579;SDS011;8402;51.466;6.806;2023-05-07T00:08:36;10.57;;;5.83;;
16579;SDS011;8402;51.466;6.806;2023-05-07T00:11:06;8.23;;;5.47;;
16579;SDS011;8402;51.466;6.806;2023-05-07T00:13:35;10.35;;;6.15;;
16579;SDS011;8402;51.466;6.806;2023-05-07T00:16:05;8.00;;;5.93;;
16579;SDS011;8402;51.466;6.806;2023-05-07T00:18:35;11.70;;;5.80;;
16579;SDS011;8402;51.466;6.806;2023-05-07T00:21:05;10.65;;;5.53;;
16579;SDS011;8402;51.466;6.806;2023-05-07T00:23:38;7.38;;;5.15;;
16579;SDS011;8402;51.466;6.806;2023-05-07T00:26:08;9.00;;;5.63;;
16579;SDS011;8402;51.466;6.806;2023-05-07T00:28:38;9.63;;;5.60;;
16579;SDS011;8402;51.466;6.806;2023-05-07T00:31:08;8.97;;;6.00;;
16579;SDS011;8402;51.466;6.806;2023-05-07T00:33:39;7.15;;;5.07;;
16579;SDS011;8402;51.466;6.806;2023-05-07T00:36:09;13.27;;;5.55;;
16579;SDS011;8402;51.466;6.806;2023-05-07T00:38:41;7.83;;;5.27;;
16579;SDS011;8402;51.466;6.806;2023-05-07T00:41:11;9.85;;;5.70;;
16579;SDS011;8402;51.466;6.806;2023-05-07T00:43:41;8.68;;;5.90;;
16579;SDS011;8402;51.466;6.806;2023-05-07T00:46:11;10.52;;;6.28;;
16579;SDS011;8402;51.466;6.806;2023-05-07T00:48:42;8.20;;;5.80;;
16579;SDS011;8402;51.466;6.806;2023-05-07T00:51:12;10.18;;;5.95;;
16579;SDS011;8402;51.466;6.806;2023-05-07T00:53:45;11.65;;;7.15;;
16579;SDS011;8402;51.466;6.806;2023-05-07T00:56:16;8.70;;;6.50;;
16579;SDS011;8402;51.466;6.806;2023-05-07T00:58:46;10.77;;;6.30;;
16579;SDS011;8402;51.466;6.806;2023-05-07T01:01:17;8.82;;;6.50;;
16579;SDS011;8402;51.466;6.806;2023-05-07T01:03:46;9.30;;;6.20;;
16579;SDS011;8402;51.466;6.806;2023-05-07T01:06:17;8.97;;;6.40;;
16579;SDS011;8402;51.466;6.806;2023-05-07T01:08:50;11.07;;;6.17;;
16579;SDS011;8402;51.466;6.806;2023-05-07T01:11:23;12.10;;;6.60;;
16579;SDS011;8402;51.466;6.806;2023-05-07T01:13:53;8.97;;;6.17;;
16579;SDS011;8402;51.466;6.806;2023-05-07T01:16:23;10.20;;;6.90;;
16579;SDS011;8402;51.466;6.806;2023-05-07T01:18:54;11.03;;;6.50;;
16579;SDS011;8402;51.466;6.806;2023-05-07T01:21:25;11.57;;;6.43;;
16579;SDS011;8402;51.466;6.806;2023-05-07T01:23:59;10.47;;;7.23;;
16579;SDS011;8402;51.466;6.806;2023-05-07T01:26:30;12.23;;;7.93;;
16579;SDS011;8402;51.466;6.806;2023-05-07T01:29:00;12.73;;;7.67;;
16579;SDS011;8402;51.466;6.806;2023-05-07T01:31:30;11.00;;;7.10;;
16579;SDS011;8402;51.466;6.806;2023-05-07T01:34:02;10.17;;;6.93;;
16579;SDS011;8402;51.466;6.806;2023-05-07T01:36:34;10.93;;;7.27;;
16579;SDS011;8402;51.466;6.806;2023-05-07T01:39:09;11.47;;;7.00;;
16579;SDS011;8402;51.466;6.806;2023-05-07T01:41:39;10.13;;;7.00;;
16579;SDS011;8402;51.466;6.806;2023-05-07T01:44:09;12.53;;;7.70;;
16579;SDS011;8402;51.466;6.806;2023-05-07T01:46:42;11.57;;;7.70;;
16579;SDS011;8402;51.466;6.806;2023-05-07T01:49:12;11.83;;;7.60;;
16579;SDS011;8402;51.466;6.806;2023-05-07T01:51:42;12.70;;;8.00;;
16579;SDS011;8402;51.466;6.806;2023-05-07T01:54:15;14.43;;;8.23;;
16579;SDS011;8402;51.466;6.806;2023-05-07T01:56:47;14.27;;;8.60;;
16579;SDS011;8402;51.466;6.806;2023-05-07T01:59:17;12.47;;;8.57;;
16579;SDS011;8402;51.466;6.806;2023-05-07T02:01:47;15.03;;;8.47;;
16579;SDS011;8402;51.466;6.806;2023-05-07T02:04:17;12.30;;;8.10;;
16579;SDS011;8402;51.466;6.806;2023-05-07T02:06:47;12.80;;;7.13;;
16579;SDS011;8402;51.466;6.806;2023-05-07T02:09:31;12.03;;;7.80;;
16579;SDS011;8402;51.466;6.806;2023-05-07T02:12:02;14.40;;;8.57;;
16579;SDS011;8402;51.466;6.806;2023-05-07T02:14:32;12.27;;;8.13;;
16579;SDS011;8402;51.466;6.806;2023-05-07T02:17:02;13.47;;;8.20;;
16579;SDS011;8402;51.466;6.806;2023-05-07T02:19:32;15.33;;;9.43;;
16579;SDS011;8402;51.466;6.806;2023-05-07T02:22:02;12.43;;;9.27;;
16579;SDS011;8402;51.466;6.806;2023-05-07T02:24:34;14.80;;;8.33;;
16579;SDS011;8402;51.466;6.806;2023-05-07T02:27:04;14.90;;;9.40;;
16579;SDS011;8402;51.466;6.806;2023-05-07T02:29:34;14.07;;;8.53;;
16579;SDS011;8402;51.466;6.806;2023-05-07T02:32:04;12.23;;;8.67;;
16579;SDS011;8402;51.466;6.806;2023-05-07T02:34:34;12.63;;;8.60;;
16579;SDS011;8402;51.466;6.806;2023-05-07T02:37:04;13.53;;;8.93;;
16579;SDS011;8402;51.466;6.806;2023-05-07T02:39:37;16.70;;;9.93;;
16579;SDS011;8402;51.466;6.806;2023-05-07T02:42:07;15.87;;;9.60;;
16579;SDS011;8402;51.466;6.806;2023-05-07T02:44:37;17.30;;;9.03;;
16579;SDS011;8402;51.466;6.806;2023-05-07T02:47:07;15.43;;;9.83;;
16579;SDS011;8402;51.466;6.806;2023-05-07T02:49:39;14.80;;;9.50;;
16579;SDS011;8402;51.466;6.806;2023-05-07T02:52:09;14.17;;;9.73;;
16579;SDS011;8402;51.466;6.806;2023-05-07T02:54:42;16.83;;;10.40;;
16579;SDS011;8402;51.466;6.806;2023-05-07T02:57:12;15.57;;;9.77;;
16579;SDS011;8402;51.466;6.806;2023-05-07T02:59:42;14.80;;;9.83;;
16579;SDS011;8402;51.466;6.806;2023-05-07T03:02:12;15.67;;;9.70;;
16579;SDS011;8402;51.466;6.806;2023-05-07T03:04:42;13.97;;;10.10;;
16579;SDS011;8402;51.466;6.806;2023-05-07T03:07:12;13.40;;;9.90;;
16579;SDS011;8402;51.466;6.806;2023-05-07T03:09:45;14.77;;;10.40;;
16579;SDS011;8402;51.466;6.806;2023-05-07T03:12:15;14.77;;;10.23;;
16579;SDS011;8402;51.466;6.806;2023-05-07T03:14:45;14.33;;;10.20;;
16579;SDS011;8402;51.466;6.806;2023-05-07T03:17:15;15.80;;;10.23;;
16579;SDS011;8402;51.466;6.806;2023-05-07T03:19:45;17.13;;;10.03;;
16579;SDS011;8402;51.466;6.806;2023-05-07T03:22:15;15.83;;;10.47;;
16579;SDS011;8402;51.466;6.806;2023-05-07T03:24:47;17.30;;;10.87;;
16579;SDS011;8402;51.466;6.806;2023-05-07T03:27:17;15.80;;;9.80;;
16579;SDS011;8402;51.466;6.806;2023-05-07T03:29:47;15.67;;;10.03;;
16579;SDS011;8402;51.466;6.806;2023-05-07T03:32:17;14.77;;;10.70;;
16579;SDS011;8402;51.466;6.806;2023-05-07T03:34:48;18.60;;;10.80;;
16579;SDS011;8402;51.466;6.806;2023-05-07T03:37:18;19.00;;;10.53;;
16579;SDS011;8402;51.466;6.806;2023-05-07T03:39:50;17.87;;;10.97;;
16579;SDS011;8402;51.466;6.806;2023-05-07T03:42:20;19.70;;;11.93;;
16579;SDS011;8402;51.466;6.806;2023-05-07T03:44:50;16.70;;;11.30;;
16579;SDS011;8402;51.466;6.806;2023-05-07T03:47:20;19.07;;;10.80;;
16579;SDS011;8402;51.466;6.806;2023-05-07T03:49:52;19.33;;;11.80;;
16579;SDS011;8402;51.466;6.806;2023-05-07T03:52:22;19.17;;;11.53;;
16579;SDS011;8402;51.466;6.806;2023-05-07T03:54:55;20.60;;;12.90;;
16579;SDS011;8402;51.466;6.806;2023-05-07T03:57:25;19.73;;;13.07;;
16579;SDS011;8402;51.466;6.806;2023-05-07T03:59:55;18.60;;;12.37;;
16579;SDS011;8402;51.466;6.806;2023-05-07T04:02:25;20.67;;;12.53;;
16579;SDS011;8402;51.466;6.806;2023-05-07T04:04:55;21.07;;;13.07;;
16579;SDS011;8402;51.466;6.806;2023-05-07T04:07:25;21.43;;;13.40;;
16579;SDS011;8402;51.466;6.806;2023-05-07T04:09:58;17.17;;;12.67;;
16579;SDS011;8402;51.466;6.806;2023-05-07T04:12:28;22.17;;;13.33;;
16579;SDS011;8402;51.466;6.806;2023-05-07T04:14:58;21.60;;;13.53;;
16579;SDS011;8402;51.466;6.806;2023-05-07T04:17:28;20.97;;;14.30;;
16579;SDS011;8402;51.466;6.806;2023-05-07T04:19:58;20.07;;;13.43;;
16579;SDS011;8402;51.466;6.806;2023-05-07T04:22:28;22.53;;;14.77;;
16579;SDS011;8402;51.466;6.806;2023-05-07T04:25:01;20.10;;;14.57;;
16579;SDS011;8402;51.466;6.806;2023-05-07T04:27:31;19.20;;;14.13;;
16579;SDS011;8402;51.466;6.806;2023-05-07T04:30:01;24.10;;;15.63;;
16579;SDS011;8402;51.466;6.806;2023-05-07T04:32:31;22.10;;;14.93;;
16579;SDS011;8402;51.466;6.806;2023-05-07T04:35:01;21.53;;;15.53;;
16579;SDS011;8402;51.466;6.806;2023-05-07T04:37:31;22.03;;;16.10;;
16579;SDS011;8402;51.466;6.806;2023-05-07T04:40:04;23.87;;;15.53;;
16579;SDS011;8402;51.466;6.806;2023-05-07T04:42:36;22.10;;;15.30;;
16579;SDS011;8402;51.466;6.806;2023-05-07T04:45:07;23.83;;;16.07;;
16579;SDS011;8402;51.466;6.806;2023-05-07T04:47:38;24.37;;;16.83;;
16579;SDS011;8402;51.466;6.806;2023-05-07T04:50:09;24.20;;;15.73;;
16579;SDS011;8402;51.466;6.806;2023-05-07T04:52:39;24.23;;;15.50;;
16579;SDS011;8402;51.466;6.806;2023-05-07T04:55:12;24.93;;;16.10;;
16579;SDS011;8402;51.466;6.806;2023-05-07T04:57:42;24.00;;;15.90;;
16579;SDS011;8402;51.466;6.806;2023-05-07T05:00:12;23.13;;;16.50;;
16579;SDS011;8402;51.466;6.806;2023-05-07T05:02:46;26.67;;;16.73;;
16579;SDS011;8402;51.466;6.806;2023-05-07T05:05:16;22.30;;;15.10;;
16579;SDS011;8402;51.466;6.806;2023-05-07T05:07:46;22.07;;;15.50;;
16579;SDS011;8402;51.466;6.806;2023-05-07T05:10:18;22.13;;;15.37;;
16579;SDS011;8402;51.466;6.806;2023-05-07T05:12:50;22.10;;;15.60;;
16579;SDS011;8402;51.466;6.806;2023-05-07T05:15:20;24.63;;;15.60;;
16579;SDS011;8402;51.466;6.806;2023-05-07T05:17:50;22.17;;;15.63;;
16579;SDS011;8402;51.466;6.806;2023-05-07T05:20:20;21.70;;;14.67;;
16579;SDS011;8402;51.466;6.806;2023-05-07T05:22:50;21.13;;;15.03;;
16579;SDS011;8402;51.466;6.806;2023-05-07T05:25:22;26.83;;;16.77;;
16579;SDS011;8402;51.466;6.806;2023-05-07T05:27:52;23.53;;;15.80;;
16579;SDS011;8402;51.466;6.806;2023-05-07T05:30:23;22.17;;;15.03;;
16579;SDS011;8402;51.466;6.806;2023-05-07T05:32:53;24.10;;;15.77;;
16579;SDS011;8402;51.466;6.806;2023-05-07T05:35:23;25.90;;;15.83;;
16579;SDS011;8402;51.466;6.806;2023-05-07T05:37:53;22.80;;;15.80;;
16579;SDS011;8402;51.466;6.806;2023-05-07T05:40:25;27.43;;;16.53;;
16579;SDS011;8402;51.466;6.806;2023-05-07T05:42:56;24.53;;;16.07;;
16579;SDS011;8402;51.466;6.806;2023-05-07T05:45:26;20.93;;;15.43;;
16579;SDS011;8402;51.466;6.806;2023-05-07T05:47:56;23.97;;;15.67;;
16579;SDS011;8402;51.466;6.806;2023-05-07T05:50:26;20.37;;;14.30;;
16579;SDS011;8402;51.466;6.806;2023-05-07T05:52:56;20.57;;;14.43;;
16579;SDS011;8402;51.466;6.806;2023-05-07T05:55:29;22.07;;;14.47;;
16579;SDS011;8402;51.466;6.806;2023-05-07T05:57:59;20.20;;;14.47;;
16579;SDS011;8402;51.466;6.806;2023-05-07T06:00:30;20.43;;;13.43;;
16579;SDS011;8402;51.466;6.806;2023-05-07T06:03:01;19.10;;;13.70;;
16579;SDS011;8402;51.466;6.806;2023-05-07T06:05:31;17.00;;;12.37;;
16579;SDS011;8402;51.466;6.806;2023-05-07T06:08:01;19.63;;;11.87;;
16579;SDS011;8402;51.466;6.806;2023-05-07T06:10:34;16.20;;;11.13;;
16579;SDS011;8402;51.466;6.806;2023-05-07T06:13:05;16.67;;;10.70;;
16579;SDS011;8402;51.466;6.806;2023-05-07T06:15:35;15.97;;;10.87;;
16579;SDS011;8402;51.466;6.806;2023-05-07T06:18:05;15.80;;;10.40;;
16579;SDS011;8402;51.466;6.806;2023-05-07T06:20:36;14.10;;;9.90;;
16579;SDS011;8402;51.466;6.806;2023-05-07T06:23:06;14.00;;;9.37;;
16579;SDS011;8402;51.466;6.806;2023-05-07T06:25:38;12.47;;;8.37;;
16579;SDS011;8402;51.466;6.806;2023-05-07T06:28:08;14.10;;;8.20;;
16579;SDS011;8402;51.466;6.806;2023-05-07T06:30:38;12.83;;;8.20;;
16579;SDS011;8402;51.466;6.806;2023-05-07T06:33:08;11.27;;;7.30;;
16579;SDS011;8402;51.466;6.806;2023-05-07T06:35:40;8.73;;;6.87;;
16579;SDS011;8402;51.466;6.806;2023-05-07T06:38:11;11.80;;;6.93;;
16579;SDS011;8402;51.466;6.806;2023-05-07T06:40:43;10.30;;;7.23;;
16579;SDS011;8402;51.466;6.806;2023-05-07T06:43:13;11.73;;;7.20;;
16579;SDS011;8402;51.466;6.806;2023-05-07T06:45:43;12.20;;;7.30;;
16579;SDS011;8402;51.466;6.806;2023-05-07T06:48:13;11.17;;;6.53;;
16579;SDS011;8402;51.466;6.806;2023-05-07T06:50:43;9.95;;;6.32;;
16579;SDS011;8402;51.466;6.806;2023-05-07T06:53:13;9.90;;;6.10;;
16579;SDS011;8402;51.466;6.806;2023-05-07T06:55:46;9.03;;;5.87;;
16579;SDS011;8402;51.466;6.806;2023-05-07T06:58:16;8.85;;;6.05;;
16579;SDS011;8402;51.466;6.806;2023-05-07T07:00:46;8.27;;;5.60;;
16579;SDS011;8402;51.466;6.806;2023-05-07T07:03:16;9.20;;;5.60;;
16579;SDS011;8402;51.466;6.806;2023-05-07T07:05:46;8.13;;;6.10;;
16579;SDS011;8402;51.466;6.806;2023-05-07T07:08:16;7.83;;;5.57;;
16579;SDS011;8402;51.466;6.806;2023-05-07T07:10:50;9.95;;;5.65;;
16579;SDS011;8402;51.466;6.806;2023-05-07T07:13:20;10.10;;;5.53;;
16579;SDS011;8402;51.466;6.806;2023-05-07T07:15:51;9.05;;;5.97;;
16579;SDS011;8402;51.466;6.806;2023-05-07T07:18:21;9.35;;;5.53;;
16579;SDS011;8402;51.466;6.806;2023-05-07T07:20:51;8.55;;;5.93;;
16579;SDS011;8402;51.466;6.806;2023-05-07T07:23:21;8.55;;;5.43;;
16579;SDS011;8402;51.466;6.806;2023-05-07T07:25:54;8.05;;;5.72;;
16579;SDS011;8402;51.466;6.806;2023-05-07T07:28:24;8.52;;;5.50;;
16579;SDS011;8402;51.466;6.806;2023-05-07T07:30:54;9.05;;;5.80;;
16579;SDS011;8402;51.466;6.806;2023-05-07T07:33:24;8.15;;;4.95;;
16579;SDS011;8402;51.466;6.806;2023-05-07T07:35:55;8.63;;;5.43;;
16579;SDS011;8402;51.466;6.806;2023-05-07T07:38:25;7.45;;;4.97;;
16579;SDS011;8402;51.466;6.806;2023-05-07T07:40:57;7.03;;;4.80;;
16579;SDS011;8402;51.466;6.806;2023-05-07T07:43:27;7.80;;;5.13;;
16579;SDS011;8402;51.466;6.806;2023-05-07T07:45:57;9.95;;;6.05;;
16579;SDS011;8402;51.466;6.806;2023-05-07T07:48:27;10.27;;;5.85;;
16579;SDS011;8402;51.466;6.806;2023-05-07T07:50:57;8.27;;;5.20;;
16579;SDS011;8402;51.466;6.806;2023-05-07T07:53:27;7.43;;;5.25;;
16579;SDS011;8402;51.466;6.806;2023-05-07T07:56:00;7.93;;;5.22;;
16579;SDS011;8402;51.466;6.806;2023-05-07T07:58:31;7.88;;;5.40;;
16579;SDS011;8402;51.466;6.806;2023-05-07T08:01:02;7.32;;;4.93;;
16579;SDS011;8402;51.466;6.806;2023-05-07T08:03:32;7.97;;;5.30;;
16579;SDS011;8402;51.466;6.806;2023-05-07T08:06:03;8.73;;;5.15;;
16579;SDS011;8402;51.466;6.806;2023-05-07T08:08:33;5.72;;;4.50;;
16579;SDS011;8402;51.466;6.806;2023-05-07T08:11:05;8.10;;;4.43;;
16579;SDS011;8402;51.466;6.806;2023-05-07T08:13:35;7.07;;;4.70;;
16579;SDS011;8402;51.466;6.806;2023-05-07T08:16:06;8.60;;;4.05;;
16579;SDS011;8402;51.466;6.806;2023-05-07T08:18:36;6.18;;;4.13;;
16579;SDS011;8402;51.466;6.806;2023-05-07T08:21:06;5.68;;;4.10;;
16579;SDS011;8402;51.466;6.806;2023-05-07T08:23:36;5.47;;;3.70;;
16579;SDS011;8402;51.466;6.806;2023-05-07T08:26:09;7.00;;;3.60;;
16579;SDS011;8402;51.466;6.806;2023-05-07T08:28:39;4.43;;;3.55;;
16579;SDS011;8402;51.466;6.806;2023-05-07T08:31:09;7.97;;;3.95;;
16579;SDS011;8402;51.466;6.806;2023-05-07T08:33:39;4.47;;;2.95;;
16579;SDS011;8402;51.466;6.806;2023-05-07T08:36:09;4.07;;;2.80;;
16579;SDS011;8402;51.466;6.806;2023-05-07T08:38:39;3.38;;;2.80;;
16579;SDS011;8402;51.466;6.806;2023-05-07T08:41:14;5.10;;;3.13;;
16579;SDS011;8402;51.466;6.806;2023-05-07T08:43:45;4.28;;;2.90;;
16579;SDS011;8402;51.466;6.806;2023-05-07T08:46:17;4.93;;;2.83;;
16579;SDS011;8402;51.466;6.806;2023-05-07T08:48:49;5.90;;;2.90;;
16579;SDS011;8402;51.466;6.806;2023-05-07T08:51:20;3.50;;;2.63;;
16579;SDS011;8402;51.466;6.806;2023-05-07T08:53:50;5.22;;;2.67;;
16579;SDS011;8402;51.466;6.806;2023-05-07T08:56:23;3.47;;;2.35;;
16579;SDS011;8402;51.466;6.806;2023-05-07T08:58:53;4.75;;;2.70;;
16579;SDS011;8402;51.466;6.806;2023-05-07T09:01:25;4.60;;;2.65;;
16579;SDS011;8402;51.466;6.806;2023-05-07T09:03:55;3.40;;;2.63;;
16579;SDS011;8402;51.466;6.806;2023-05-07T09:06:26;4.20;;;2.40;;
16579;SDS011;8402;51.466;6.806;2023-05-07T09:08:56;3.65;;;2.30;;
16579;SDS011;8402;51.466;6.806;2023-05-07T09:11:30;3.00;;;2.22;;
16579;SDS011;8402;51.466;6.806;2023-05-07T09:14:00;3.90;;;2.10;;
16579;SDS011;8402;51.466;6.806;2023-05-07T09:16:32;5.38;;;2.28;;
16579;SDS011;8402;51.466;6.806;2023-05-07T09:19:02;3.30;;;2.15;;
16579;SDS011;8402;51.466;6.806;2023-05-07T09:21:32;2.97;;;2.10;;
16579;SDS011;8402;51.466;6.806;2023-05-07T09:24:02;3.50;;;2.22;;
16579;SDS011;8402;51.466;6.806;2023-05-07T09:26:35;3.75;;;2.20;;
16579;SDS011;8402;51.466;6.806;2023-05-07T09:29:04;3.65;;;2.17;;
16579;SDS011;8402;51.466;6.806;2023-05-07T09:31:36;2.75;;;2.45;;
16579;SDS011;8402;51.466;6.806;2023-05-07T09:34:06;2.55;;;2.13;;
16579;SDS011;8402;51.466;6.806;2023-05-07T09:36:36;3.33;;;2.45;;
16579;SDS011;8402;51.466;6.806;2023-05-07T09:39:07;2.92;;;2.50;;
16579;SDS011;8402;51.466;6.806;2023-05-07T09:41:45;3.35;;;2.33;;
16579;SDS011;8402;51.466;6.806;2023-05-07T09:44:17;4.07;;;2.20;;
16579;SDS011;8402;51.466;6.806;2023-05-07T09:46:51;3.60;;;2.60;;
16579;SDS011;8402;51.466;6.806;2023-05-07T09:49:23;3.83;;;2.30;;
16579;SDS011;8402;51.466;6.806;2023-05-07T09:51:54;2.88;;;2.20;;
16579;SDS011;8402;51.466;6.806;2023-05-07T09:54:24;4.25;;;2.55;;
16579;SDS011;8402;51.466;6.806;2023-05-07T09:56:58;3.85;;;2.40;;
16579;SDS011;8402;51.466;6.806;2023-05-07T09:59:31;4.65;;;2.45;;
16579;SDS011;8402;51.466;6.806;2023-05-07T10:02:04;2.38;;;2.03;;
16579;SDS011;8402;51.466;6.806;2023-05-07T10:04:34;2.40;;;2.05;;
16579;SDS011;8402;51.466;6.806;2023-05-07T10:07:07;3.03;;;2.20;;
16579;SDS011;8402;51.466;6.806;2023-05-07T10:09:38;3.42;;;2.17;;
16579;SDS011;8402;51.466;6.806;2023-05-07T10:12:13;3.40;;;2.47;;
16579;SDS011;8402;51.466;6.806;2023-05-07T10:14:43;4.40;;;1.95;;
16579;SDS011;8402;51.466;6.806;2023-05-07T10:17:15;2.90;;;2.10;;
16579;SDS011;8402;51.466;6.806;2023-05-07T10:19:46;2.47;;;2.13;;
16579;SDS011;8402;51.466;6.806;2023-05-07T10:22:16;4.07;;;2.05;;
16579;SDS011;8402;51.466;6.806;2023-05-07T10:24:48;3.53;;;2.42;;
16579;SDS011;8402;51.466;6.806;2023-05-07T10:27:24;2.40;;;2.13;;
16579;SDS011;8402;51.466;6.806;2023-05-07T10:29:56;3.05;;;2.38;;
16579;SDS011;8402;51.466;6.806;2023-05-07T10:32:37;3.83;;;2.15;;
16579;SDS011;8402;51.466;6.806;2023-05-07T10:35:10;3.58;;;2.42;;
16579;SDS011;8402;51.466;6.806;2023-05-07T10:37:45;3.00;;;2.30;;
16579;SDS011;8402;51.466;6.806;2023-05-07T10:40:17;2.40;;;2.00;;
16579;SDS011;8402;51.466;6.806;2023-05-07T10:42:58;4.47;;;2.65;;
16579;SDS011;8402;51.466;6.806;2023-05-07T10:45:35;2.72;;;2.38;;
16579;SDS011;8402;51.466;6.806;2023-05-07T10:48:06;5.22;;;2.45;;
16579;SDS011;8402;51.466;6.806;2023-05-07T10:53:48;4.32;;;2.42;;
16579;SDS011;8402;51.466;6.806;2023-05-07T10:56:51;3.75;;;2.50;;
16579;SDS011;8402;51.466;6.806;2023-05-07T10:59:34;3.92;;;2.65;;
16579;SDS011;8402;51.466;6.806;2023-05-07T11:02:08;3.15;;;2.50;;
16579;SDS011;8402;51.466;6.806;2023-05-07T11:04:40;5.72;;;2.60;;
16579;SDS011;8402;51.466;6.806;2023-05-07T11:07:23;3.33;;;2.70;;
16579;SDS011;8402;51.466;6.806;2023-05-07T11:09:55;3.13;;;2.65;;
16579;SDS011;8402;51.466;6.806;2023-05-07T11:18:14;4.05;;;2.05;;
16579;SDS011;8402;51.466;6.806;2023-05-07T11:20:53;3.45;;;2.40;;
16579;SDS011;8402;51.466;6.806;2023-05-07T11:26:42;3.65;;;2.33;;
16579;SDS011;8402;51.466;6.806;2023-05-07T11:29:17;6.78;;;4.20;;
16579;SDS011;8402;51.466;6.806;2023-05-07T11:31:52;3.72;;;2.50;;
16579;SDS011;8402;51.466;6.806;2023-05-07T11:34:24;3.25;;;2.58;;
16579;SDS011;8402;51.466;6.806;2023-05-07T11:36:55;2.78;;;2.20;;
16579;SDS011;8402;51.466;6.806;2023-05-07T11:39:28;5.07;;;2.90;;
16579;SDS011;8402;51.466;6.806;2023-05-07T11:42:00;23.92;;;13.38;;
16579;SDS011;8402;51.466;6.806;2023-05-07T11:44:42;15.15;;;7.60;;
16579;SDS011;8402;51.466;6.806;2023-05-07T11:47:19;4.07;;;2.78;;
16579;SDS011;8402;51.466;6.806;2023-05-07T11:49:50;4.32;;;2.65;;
16579;SDS011;8402;51.466;6.806;2023-05-07T11:52:22;4.10;;;2.60;;
16579;SDS011;8402;51.466;6.806;2023-05-07T11:54:53;3.72;;;2.70;;
16579;SDS011;8402;51.466;6.806;2023-05-07T11:57:24;4.18;;;2.85;;
16579;SDS011;8402;51.466;6.806;2023-05-07T11:59:55;7.68;;;4.95;;
16579;SDS011;8402;51.466;6.806;2023-05-07T12:02:28;3.67;;;2.90;;
16579;SDS011;8402;51.466;6.806;2023-05-07T12:04:59;3.25;;;2.47;;
16579;SDS011;8402;51.466;6.806;2023-05-07T12:07:32;5.35;;;2.60;;
16579;SDS011;8402;51.466;6.806;2023-05-07T12:10:04;5.45;;;2.88;;
16579;SDS011;8402;51.466;6.806;2023-05-07T12:12:38;3.50;;;2.50;;
16579;SDS011;8402;51.466;6.806;2023-05-07T12:15:15;5.40;;;2.65;;
16579;SDS011;8402;51.466;6.806;2023-05-07T12:17:48;5.57;;;2.75;;
16579;SDS011;8402;51.466;6.806;2023-05-07T12:20:19;3.10;;;2.70;;
16579;SDS011;8402;51.466;6.806;2023-05-07T12:22:49;3.30;;;2.60;;
16579;SDS011;8402;51.466;6.806;2023-05-07T12:25:20;2.60;;;2.17;;
16579;SDS011;8402;51.466;6.806;2023-05-07T12:27:51;2.58;;;2.38;;
16579;SDS011;8402;51.466;6.806;2023-05-07T12:30:21;4.82;;;2.70;;
16579;SDS011;8402;51.466;6.806;2023-05-07T12:32:55;2.88;;;2.45;;
16579;SDS011;8402;51.466;6.806;2023-05-07T12:35:28;5.43;;;2.50;;
16579;SDS011;8402;51.466;6.806;2023-05-07T12:37:58;4.97;;;2.30;;
16579;SDS011;8402;51.466;6.806;2023-05-07T12:40:36;4.55;;;2.40;;
16579;SDS011;8402;51.466;6.806;2023-05-07T12:43:07;3.88;;;2.28;;
16579;SDS011;8402;51.466;6.806;2023-05-07T12:45:37;4.25;;;2.45;;
16579;SDS011;8402;51.466;6.806;2023-05-07T12:48:11;4.38;;;2.22;;
16579;SDS011;8402;51.466;6.806;2023-05-07T12:50:42;3.72;;;2.15;;
16579;SDS011;8402;51.466;6.806;2023-05-07T12:53:12;4.32;;;2.40;;
16579;SDS011;8402;51.466;6.806;2023-05-07T12:55:42;4.97;;;2.60;;
16579;SDS011;8402;51.466;6.806;2023-05-07T12:58:16;7.20;;;2.70;;
16579;SDS011;8402;51.466;6.806;2023-05-07T13:00:47;4.63;;;2.35;;
16579;SDS011;8402;51.466;6.806;2023-05-07T13:03:24;3.40;;;2.35;;
16579;SDS011;8402;51.466;6.806;2023-05-07T13:05:57;3.13;;;2.55;;
16579;SDS011;8402;51.466;6.806;2023-05-07T13:08:29;2.80;;;2.20;;
16579;SDS011;8402;51.466;6.806;2023-05-07T13:11:01;4.65;;;2.70;;
16579;SDS011;8402;51.466;6.806;2023-05-07T13:13:32;3.65;;;2.40;;
16579;SDS011;8402;51.466;6.806;2023-05-07T13:16:04;6.68;;;2.75;;
16579;SDS011;8402;51.466;6.806;2023-05-07T13:18:38;3.85;;;2.95;;
16579;SDS011;8402;51.466;6.806;2023-05-07T13:21:10;3.22;;;2.70;;
16579;SDS011;8402;51.466;6.806;2023-05-07T13:23:40;4.82;;;3.20;;
16579;SDS011;8402;51.466;6.806;2023-05-07T13:26:10;4.50;;;3.50;;
16579;SDS011;8402;51.466;6.806;2023-05-07T13:28:52;5.35;;;3.35;;
16579;SDS011;8402;51.466;6.806;2023-05-07T13:31:22;4.35;;;3.47;;
16579;SDS011;8402;51.466;6.806;2023-05-07T13:33:56;4.10;;;3.33;;
16579;SDS011;8402;51.466;6.806;2023-05-07T13:36:26;4.68;;;3.60;;
16579;SDS011;8402;51.466;6.806;2023-05-07T13:38:59;5.25;;;3.88;;
16579;SDS011;8402;51.466;6.806;2023-05-07T13:41:29;5.80;;;3.92;;
16579;SDS011;8402;51.466;6.806;2023-05-07T13:43:59;5.68;;;3.50;;
16579;SDS011;8402;51.466;6.806;2023-05-07T13:46:29;11.00;;;4.13;;
16579;SDS011;8402;51.466;6.806;2023-05-07T13:49:02;7.15;;;4.13;;
16579;SDS011;8402;51.466;6.806;2023-05-07T13:51:32;7.75;;;4.22;;
16579;SDS011;8402;51.466;6.806;2023-05-07T13:54:01;5.47;;;3.90;;
16579;SDS011;8402;51.466;6.806;2023-05-07T13:56:33;6.85;;;4.55;;
16579;SDS011;8402;51.466;6.806;2023-05-07T13:59:03;7.82;;;4.80;;
16579;SDS011;8402;51.466;6.806;2023-05-07T14:01:33;6.82;;;4.75;;
16579;SDS011;8402;51.466;6.806;2023-05-07T14:04:06;5.60;;;4.68;;
16579;SDS011;8402;51.466;6.806;2023-05-07T14:06:36;6.35;;;4.78;;
16579;SDS011;8402;51.466;6.806;2023-05-07T14:09:06;7.90;;;4.90;;
16579;SDS011;8402;51.466;6.806;2023-05-07T14:11:38;5.25;;;4.22;;
16579;SDS011;8402;51.466;6.806;2023-05-07T14:14:08;5.65;;;4.15;;
16579;SDS011;8402;51.466;6.806;2023-05-07T14:16:39;5.72;;;3.90;;
16579;SDS011;8402;51.466;6.806;2023-05-07T14:19:19;7.13;;;4.47;;
16579;SDS011;8402;51.466;6.806;2023-05-07T14:21:49;5.00;;;3.95;;
16579;SDS011;8402;51.466;6.806;2023-05-07T14:24:19;5.72;;;4.18;;
16579;SDS011;8402;51.466;6.806;2023-05-07T14:27:03;5.35;;;4.20;;
16579;SDS011;8402;51.466;6.806;2023-05-07T14:29:33;9.07;;;5.57;;
16579;SDS011;8402;51.466;6.806;2023-05-07T14:32:04;5.90;;;4.25;;
16579;SDS011;8402;51.466;6.806;2023-05-07T14:34:37;5.30;;;4.25;;
16579;SDS011;8402;51.466;6.806;2023-05-07T14:37:06;8.07;;;4.63;;
16579;SDS011;8402;51.466;6.806;2023-05-07T14:39:36;7.47;;;4.47;;
16579;SDS011;8402;51.466;6.806;2023-05-07T14:42:07;7.00;;;4.90;;
16579;SDS011;8402;51.466;6.806;2023-05-07T14:44:37;8.02;;;5.35;;
16579;SDS011;8402;51.466;6.806;2023-05-07T14:47:08;7.63;;;5.30;;
16579;SDS011;8402;51.466;6.806;2023-05-07T14:49:40;8.55;;;5.32;;
16579;SDS011;8402;51.466;6.806;2023-05-07T14:52:12;26.00;;;10.75;;
16579;SDS011;8402;51.466;6.806;2023-05-07T14:54:41;11.82;;;5.95;;
16579;SDS011;8402;51.466;6.806;2023-05-07T14:57:13;9.88;;;5.15;;
16579;SDS011;8402;51.466;6.806;2023-05-07T14:59:45;69.32;;;48.58;;
16579;SDS011;8402;51.466;6.806;2023-05-07T15:02:15;6.90;;;5.13;;
16579;SDS011;8402;51.466;6.806;2023-05-07T15:04:49;10.40;;;5.35;;
16579;SDS011;8402;51.466;6.806;2023-05-07T15:07:19;8.07;;;5.45;;
16579;SDS011;8402;51.466;6.806;2023-05-07T15:09:49;11.50;;;5.63;;
16579;SDS011;8402;51.466;6.806;2023-05-07T15:12:19;10.27;;;5.50;;
16579;SDS011;8402;51.466;6.806;2023-05-07T15:14:49;9.23;;;4.75;;
16579;SDS011;8402;51.466;6.806;2023-05-07T15:17:19;8.68;;;5.18;;
16579;SDS011;8402;51.466;6.806;2023-05-07T15:19:51;7.65;;;5.35;;
16579;SDS011;8402;51.466;6.806;2023-05-07T15:22:21;11.40;;;5.63;;
16579;SDS011;8402;51.466;6.806;2023-05-07T15:24:51;8.82;;;5.53;;
16579;SDS011;8402;51.466;6.806;2023-05-07T15:27:21;10.35;;;6.00;;
16579;SDS011;8402;51.466;6.806;2023-05-07T15:29:52;10.95;;;6.30;;